createdAt,value
2023-01-10T00:00:35.412Z,1.97
2023-01-10T00:03:06.008Z,2.13
2023-01-10T00:05:33.169Z,2.07
2023-01-10T00:08:02.018Z,2.20
2023-01-10T00:10:29.212Z,1.87
2023-01-10T00:13:14.866Z,1.73
2023-01-10T00:15:41.912Z,1.93
2023-01-10T00:18:09.395Z,1.70
2023-01-10T00:20:36.440Z,2.20
2023-01-10T00:23:03.728Z,2.07
2023-01-10T00:25:30.865Z,1.90
2023-01-10T00:28:04.629Z,1.70
2023-01-10T00:30:33.679Z,2.00
2023-01-10T00:33:00.739Z,2.07
2023-01-10T00:35:27.849Z,2.00
2023-01-10T00:38:01.243Z,2.13
2023-01-10T00:40:28.278Z,2.60
2023-01-10T00:43:14.340Z,2.40
2023-01-10T00:45:41.374Z,2.13
2023-01-10T00:48:08.391Z,2.40
2023-01-10T00:50:35.419Z,2.97
2023-01-10T00:53:02.531Z,2.83
2023-01-10T00:55:29.287Z,3.13
2023-01-10T00:57:56.435Z,3.37
2023-01-10T01:00:23.506Z,2.53
2023-01-10T01:02:51.600Z,2.53
2023-01-10T01:05:19.142Z,2.47
2023-01-10T01:07:50.636Z,2.77
2023-01-10T01:10:26.998Z,2.83
2023-01-10T01:12:58.416Z,3.40
2023-01-10T01:15:26.588Z,3.53
2023-01-10T01:17:53.915Z,4.17
2023-01-10T01:20:21.684Z,4.20
2023-01-10T01:22:48.795Z,4.43
2023-01-10T01:25:15.845Z,4.50
2023-01-10T01:27:42.891Z,4.33
2023-01-10T01:30:11.062Z,4.60
2023-01-10T01:32:38.167Z,5.03
2023-01-10T01:35:07.188Z,5.47
2023-01-10T01:37:34.070Z,5.43
2023-01-10T01:40:00.680Z,4.87
2023-01-10T01:42:28.900Z,6.43
2023-01-10T01:45:11.155Z,6.33
2023-01-10T01:48:02.919Z,5.83
2023-01-10T01:50:37.196Z,5.67
2023-01-10T01:53:10.173Z,5.63
2023-01-10T01:55:38.519Z,5.70
2023-01-10T01:58:12.635Z,6.60
2023-01-10T02:00:39.662Z,5.97
2023-01-10T02:03:06.995Z,5.80
2023-01-10T02:05:36.288Z,6.17
2023-01-10T02:08:03.479Z,5.83
2023-01-10T02:10:37.494Z,6.20
2023-01-10T02:13:06.947Z,5.70
2023-01-10T02:15:33.961Z,6.23
2023-01-10T02:18:02.908Z,5.00
2023-01-10T02:20:33.118Z,4.80
2023-01-10T02:23:41.259Z,5.13
2023-01-10T02:26:43.506Z,5.50
2023-01-10T02:29:47.615Z,5.80
2023-01-10T02:32:43.931Z,5.13
2023-01-10T02:36:00.467Z,4.40
2023-01-10T02:38:42.123Z,4.87
2023-01-10T02:41:31.070Z,4.27
2023-01-10T02:44:07.100Z,4.67
2023-01-10T02:46:35.668Z,5.33
2023-01-10T02:49:02.793Z,4.20
2023-01-10T02:51:33.391Z,5.23
2023-01-10T02:54:13.558Z,3.80
2023-01-10T02:57:01.264Z,4.33
2023-01-10T02:59:31.363Z,4.10
2023-01-10T03:02:27.739Z,4.53
2023-01-10T03:05:15.299Z,4.17
2023-01-10T03:08:03.196Z,4.00
2023-01-10T03:10:40.087Z,4.50
2023-01-10T03:13:21.378Z,4.83
2023-01-10T03:15:48.784Z,4.87
2023-01-10T03:18:24.357Z,4.67
2023-01-10T03:20:52.716Z,5.27
2023-01-10T03:23:22.238Z,5.30
2023-01-10T03:25:52.273Z,5.70
2023-01-10T03:28:29.242Z,5.60
2023-01-10T03:31:02.174Z,4.67
2023-01-10T03:33:32.075Z,5.30
2023-01-10T03:36:26.729Z,6.37
2023-01-10T03:39:04.989Z,5.40
2023-01-10T03:41:46.721Z,5.53
2023-01-10T03:44:44.667Z,5.70
2023-01-10T03:47:13.825Z,5.70
2023-01-10T03:49:43.241Z,5.93
2023-01-10T03:52:13.836Z,6.33
2023-01-10T03:54:43.267Z,6.00
2023-01-10T03:57:19.160Z,5.70
2023-01-10T03:59:47.076Z,6.30
2023-01-10T04:02:14.178Z,6.50
2023-01-10T04:04:41.308Z,7.10
2023-01-10T04:07:08.095Z,7.37
2023-01-10T04:09:34.873Z,5.97
2023-01-10T04:12:02.172Z,6.30
2023-01-10T04:14:28.824Z,6.17
2023-01-10T04:16:55.893Z,6.37
2023-01-10T04:19:22.956Z,6.07
2023-01-10T04:21:50.055Z,5.90
2023-01-10T04:24:17.122Z,6.40
2023-01-10T04:26:44.704Z,6.20
2023-01-10T04:29:11.823Z,5.17
2023-01-10T04:31:39.993Z,6.07
2023-01-10T04:34:08.128Z,5.67
2023-01-10T04:36:35.323Z,6.20
2023-01-10T04:39:02.493Z,5.90
2023-01-10T04:41:29.607Z,5.67
2023-01-10T04:43:56.717Z,5.43
2023-01-10T04:46:23.790Z,5.33
2023-01-10T04:48:50.947Z,5.27
2023-01-10T04:51:17.969Z,5.53
2023-01-10T04:53:45.017Z,5.87
2023-01-10T04:56:19.524Z,5.40
2023-01-10T04:58:47.192Z,4.73
2023-01-10T05:01:20.960Z,5.23
2023-01-10T05:03:52.275Z,4.97
2023-01-10T05:06:19.578Z,4.17
2023-01-10T05:08:46.687Z,4.87
2023-01-10T05:11:13.563Z,5.17
2023-01-10T05:13:40.933Z,4.60
2023-01-10T05:16:07.697Z,5.00
2023-01-10T05:18:34.922Z,3.93
2023-01-10T05:21:04.060Z,4.30
2023-01-10T05:23:31.315Z,4.47
2023-01-10T05:25:58.015Z,4.13
2023-01-10T05:28:25.084Z,4.50
2023-01-10T05:30:52.114Z,4.03
2023-01-10T05:33:19.159Z,3.70
2023-01-10T05:35:46.178Z,3.60
2023-01-10T05:38:13.249Z,4.27
2023-01-10T05:40:40.427Z,3.33
2023-01-10T05:43:07.576Z,3.30
2023-01-10T05:45:34.687Z,4.17
2023-01-10T05:48:01.721Z,3.47
2023-01-10T05:50:28.786Z,4.63
2023-01-10T05:53:05.579Z,3.73
2023-01-10T05:55:32.794Z,3.10
2023-01-10T05:57:59.863Z,3.47
2023-01-10T06:00:27.095Z,3.80
2023-01-10T06:02:57.396Z,3.83
2023-01-10T06:05:24.499Z,2.80
2023-01-10T06:07:51.370Z,3.43
2023-01-10T06:10:18.114Z,3.63
2023-01-10T06:12:45.152Z,3.53
2023-01-10T06:15:11.783Z,3.80
2023-01-10T06:17:38.820Z,3.20
2023-01-10T06:20:06.299Z,4.67
2023-01-10T06:22:32.914Z,3.93
2023-01-10T06:25:02.224Z,4.07
2023-01-10T06:27:28.996Z,3.83
2023-01-10T06:29:56.721Z,4.53
2023-01-10T06:32:23.789Z,5.63
2023-01-10T06:34:50.827Z,4.73
2023-01-10T06:37:20.099Z,4.40
2023-01-10T06:39:46.924Z,4.43
2023-01-10T06:42:14.013Z,4.90
2023-01-10T06:44:40.716Z,5.03
2023-01-10T06:47:07.717Z,4.70
2023-01-10T06:49:34.751Z,4.63
2023-01-10T06:52:01.372Z,4.83
2023-01-10T06:54:28.421Z,5.20
2023-01-10T06:56:55.442Z,4.87
2023-01-10T06:59:22.560Z,3.90
2023-01-10T07:01:49.851Z,4.57
2023-01-10T07:04:17.014Z,5.63
2023-01-10T07:06:44.088Z,4.10
2023-01-10T07:09:11.193Z,4.40
2023-01-10T07:11:38.285Z,4.77
2023-01-10T07:14:05.389Z,4.57
2023-01-10T07:16:32.507Z,4.20
2023-01-10T07:18:59.924Z,5.17
2023-01-10T07:21:26.948Z,4.67
2023-01-10T07:23:54.005Z,4.20
2023-01-10T07:26:21.360Z,3.93
2023-01-10T07:28:52.857Z,4.53
2023-01-10T07:31:22.706Z,4.67
2023-01-10T07:33:51.157Z,4.20
2023-01-10T07:36:18.216Z,4.60
2023-01-10T07:38:44.838Z,4.20
2023-01-10T07:41:11.903Z,4.63
2023-01-10T07:43:39.001Z,4.87
2023-01-10T07:46:12.009Z,5.00
2023-01-10T07:48:41.930Z,5.17
2023-01-10T07:51:09.850Z,4.87
2023-01-10T07:53:37.053Z,4.63
2023-01-10T07:56:04.347Z,4.10
2023-01-10T07:58:31.665Z,4.40
2023-01-10T08:00:59.586Z,4.90
2023-01-10T08:03:26.676Z,4.60
2023-01-10T08:06:10.171Z,5.23
2023-01-10T08:08:37.253Z,4.40
2023-01-10T08:11:05.034Z,4.87
2023-01-10T08:13:32.666Z,5.97
2023-01-10T08:15:59.814Z,4.30
2023-01-10T08:18:26.990Z,5.40
2023-01-10T08:20:54.479Z,4.00
2023-01-10T08:23:21.790Z,4.30
2023-01-10T08:25:49.146Z,4.47
2023-01-10T08:28:16.234Z,4.87
2023-01-10T08:30:43.194Z,4.83
2023-01-10T08:33:11.046Z,3.80
2023-01-10T08:35:42.739Z,5.27
2023-01-10T08:38:10.911Z,5.37
2023-01-10T08:40:38.122Z,4.73
2023-01-10T08:43:07.379Z,6.60
2023-01-10T08:45:34.899Z,4.67
2023-01-10T08:48:02.117Z,5.33
2023-01-10T08:50:29.331Z,4.73
2023-01-10T08:53:00.069Z,4.77
2023-01-10T08:55:28.303Z,5.93
2023-01-10T08:57:55.028Z,4.27
2023-01-10T09:00:22.389Z,5.40
2023-01-10T09:02:49.512Z,5.60
2023-01-10T09:05:27.093Z,4.97
2023-01-10T09:08:00.009Z,4.57
2023-01-10T09:10:27.288Z,6.23
2023-01-10T09:12:57.416Z,5.00
2023-01-10T09:15:33.699Z,6.87
2023-01-10T09:18:02.597Z,6.73
2023-01-10T09:20:30.222Z,7.63
2023-01-10T09:22:58.307Z,5.67
2023-01-10T09:25:25.638Z,6.87
2023-01-10T09:27:59.595Z,7.40
2023-01-10T09:30:26.833Z,8.93
2023-01-10T09:32:54.515Z,7.70
2023-01-10T09:35:21.559Z,7.67
2023-01-10T09:37:48.645Z,7.53
2023-01-10T09:40:19.347Z,6.93
2023-01-10T09:43:13.539Z,7.50
2023-01-10T09:46:10.176Z,9.47
2023-01-10T09:48:56.536Z,6.63
2023-01-10T09:51:37.286Z,7.57
2023-01-10T09:54:12.326Z,6.57
2023-01-10T09:56:40.611Z,8.23
2023-01-10T09:59:17.248Z,9.03
2023-01-10T10:01:46.730Z,7.40
2023-01-10T10:04:21.507Z,6.00
2023-01-10T10:06:52.558Z,8.53
2023-01-10T10:09:35.115Z,7.27
2023-01-10T10:12:17.972Z,7.90
2023-01-10T10:14:54.763Z,7.10
2023-01-10T10:17:46.708Z,7.23
2023-01-10T10:20:47.042Z,7.83
2023-01-10T10:23:53.407Z,7.40
2023-01-10T10:26:36.113Z,7.10
2023-01-10T10:29:11.810Z,7.23
2023-01-10T10:31:56.744Z,7.93
2023-01-10T10:34:36.498Z,7.63
2023-01-10T10:37:21.498Z,7.23
2023-01-10T10:39:53.712Z,8.93
2023-01-10T10:42:20.972Z,6.97
2023-01-10T10:44:55.134Z,7.67
2023-01-10T10:47:23.711Z,8.20
2023-01-10T10:49:50.930Z,8.27
2023-01-10T10:52:24.658Z,8.13
2023-01-10T10:54:52.794Z,7.73
2023-01-10T10:57:24.129Z,8.97
2023-01-10T10:59:51.275Z,8.93
2023-01-10T11:02:38.984Z,8.10
2023-01-10T11:05:13.900Z,8.00
2023-01-10T11:07:41.053Z,8.27
2023-01-10T11:10:34.900Z,7.60
2023-01-10T11:13:12.466Z,7.30
2023-01-10T11:15:45.091Z,7.50
2023-01-10T11:18:16.359Z,7.67
2023-01-10T11:21:10.444Z,9.10
2023-01-10T11:23:40.109Z,7.30
2023-01-10T11:26:30.790Z,7.50
2023-01-10T11:29:38.162Z,6.83
2023-01-10T11:32:15.133Z,5.23
2023-01-10T11:34:53.541Z,5.70
2023-01-10T11:37:29.162Z,4.97
2023-01-10T11:40:17.689Z,4.40
2023-01-10T11:42:45.043Z,4.57
2023-01-10T11:45:22.807Z,4.67
2023-01-10T11:47:49.932Z,5.77
2023-01-10T11:50:21.793Z,4.97
2023-01-10T11:52:50.039Z,5.17
2023-01-10T11:55:37.581Z,5.50
2023-01-10T11:58:13.432Z,5.73
2023-01-10T12:00:46.502Z,6.00
2023-01-10T12:03:20.454Z,7.47
2023-01-10T12:05:59.734Z,9.33
2023-01-10T12:08:34.802Z,12.17
2023-01-10T12:11:31.468Z,7.43
2023-01-10T12:14:00.895Z,5.73
2023-01-10T12:16:33.047Z,5.83
2023-01-10T12:19:07.255Z,5.97
2023-01-10T12:21:39.906Z,5.27
2023-01-10T12:24:15.709Z,7.07
2023-01-10T12:26:43.454Z,6.30
2023-01-10T12:29:19.651Z,7.20
2023-01-10T12:31:46.764Z,5.37
2023-01-10T12:34:13.801Z,5.63
2023-01-10T12:37:16.661Z,5.50
2023-01-10T12:39:55.410Z,6.83
2023-01-10T12:42:43.733Z,5.47
2023-01-10T12:45:19.398Z,5.57
2023-01-10T12:48:04.753Z,4.83
2023-01-10T12:50:43.488Z,4.97
2023-01-10T12:53:33.792Z,4.73
2023-01-10T12:56:05.912Z,5.27
2023-01-10T12:58:43.946Z,4.27
2023-01-10T13:01:45.491Z,3.93
2023-01-10T13:04:16.593Z,5.10
2023-01-10T13:06:44.333Z,3.90
2023-01-10T13:09:19.658Z,4.03
2023-01-10T13:12:02.457Z,4.83
2023-01-10T13:14:45.859Z,3.90
2023-01-10T13:17:13.034Z,4.80
2023-01-10T13:19:40.386Z,3.93
2023-01-10T13:22:21.516Z,4.00
2023-01-10T13:24:59.569Z,3.03
2023-01-10T13:27:32.029Z,4.03
2023-01-10T13:29:59.306Z,4.57
2023-01-10T13:32:32.207Z,3.90
2023-01-10T13:35:16.023Z,6.60
2023-01-10T13:37:45.019Z,6.43
2023-01-10T13:40:21.256Z,4.37
2023-01-10T13:43:33.430Z,3.33
2023-01-10T13:46:18.355Z,3.17
2023-01-10T13:49:11.358Z,3.60
2023-01-10T13:51:39.768Z,3.03
2023-01-10T13:54:18.210Z,3.03
2023-01-10T13:56:45.145Z,2.23
2023-01-10T13:59:50.596Z,3.13
2023-01-10T14:02:34.197Z,3.57
2023-01-10T14:05:03.633Z,2.63
2023-01-10T14:07:48.777Z,3.03
2023-01-10T14:10:27.594Z,2.67
2023-01-10T14:13:09.108Z,2.37
2023-01-10T14:15:41.986Z,3.27
2023-01-10T14:18:22.436Z,2.10
2023-01-10T14:21:02.243Z,2.90
2023-01-10T14:23:35.675Z,2.53
2023-01-10T14:26:03.156Z,2.33
2023-01-10T14:28:33.000Z,2.37
2023-01-10T14:31:00.463Z,2.87
2023-01-10T14:33:27.877Z,2.50
2023-01-10T14:36:02.351Z,3.10
2023-01-10T14:38:32.460Z,2.27
2023-01-10T14:41:06.203Z,3.33
2023-01-10T14:43:45.220Z,3.17
2023-01-10T14:46:17.604Z,2.13
2023-01-10T14:48:51.507Z,1.87
2023-01-10T14:51:20.848Z,4.90
2023-01-10T14:53:55.763Z,4.47
2023-01-10T14:56:44.852Z,2.63
2023-01-10T14:59:18.894Z,2.37
2023-01-10T15:01:49.046Z,2.30
2023-01-10T15:04:18.208Z,2.37
2023-01-10T15:07:00.005Z,2.50
2023-01-10T15:09:27.903Z,4.87
2023-01-10T15:11:55.491Z,2.80
2023-01-10T15:14:26.141Z,2.37
2023-01-10T15:16:57.461Z,2.27
2023-01-10T15:19:25.318Z,3.10
2023-01-10T15:21:52.413Z,2.77
2023-01-10T15:24:33.355Z,2.70
2023-01-10T15:27:04.163Z,2.10
2023-01-10T15:29:31.708Z,2.83
2023-01-10T15:32:17.724Z,2.77
2023-01-10T15:34:49.667Z,2.30
2023-01-10T15:37:22.275Z,2.23
2023-01-10T15:39:49.334Z,2.70
2023-01-10T15:42:21.030Z,2.20
2023-01-10T15:44:52.657Z,2.33
2023-01-10T15:47:41.937Z,8.63
2023-01-10T15:50:21.294Z,3.73
2023-01-10T15:52:53.125Z,2.30
2023-01-10T15:55:34.805Z,3.33
2023-01-10T15:58:02.184Z,2.97
2023-01-10T16:00:30.142Z,2.13
2023-01-10T16:02:57.708Z,1.97
2023-01-10T16:05:24.816Z,2.40
2023-01-10T16:07:51.958Z,2.83
2023-01-10T16:10:21.974Z,3.20
2023-01-10T16:13:07.893Z,4.10
2023-01-10T16:15:38.193Z,2.10
2023-01-10T16:18:05.344Z,2.57
2023-01-10T16:20:39.077Z,3.90
2023-01-10T16:23:10.481Z,10.03
2023-01-10T16:25:38.906Z,2.00
2023-01-10T16:28:06.319Z,1.80
2023-01-10T16:30:34.463Z,1.90
2023-01-10T16:33:10.787Z,2.20
2023-01-10T16:35:37.922Z,2.83
2023-01-10T16:38:05.019Z,2.40
2023-01-10T16:40:37.622Z,2.27
2023-01-10T16:43:25.563Z,2.47
2023-01-10T16:45:54.737Z,1.90
2023-01-10T16:48:22.071Z,2.63
2023-01-10T16:50:49.372Z,2.53
2023-01-10T16:53:18.760Z,2.20
2023-01-10T16:55:52.957Z,2.33
2023-01-10T16:58:20.794Z,2.00
2023-01-10T17:00:50.702Z,2.50
2023-01-10T17:03:21.756Z,2.67
2023-01-10T17:05:48.966Z,3.13
2023-01-10T17:08:19.001Z,3.17
2023-01-10T17:10:48.947Z,2.03
2023-01-10T17:13:27.077Z,2.00
2023-01-10T17:15:54.171Z,2.77
2023-01-10T17:18:21.491Z,2.77
2023-01-10T17:20:48.847Z,2.07
2023-01-10T17:23:15.991Z,2.63
2023-01-10T17:25:42.716Z,2.23
2023-01-10T17:28:11.692Z,2.20
2023-01-10T17:30:42.050Z,1.70
2023-01-10T17:33:11.935Z,2.10
2023-01-10T17:35:42.776Z,3.07
2023-01-10T17:38:16.174Z,2.57
2023-01-10T17:40:47.301Z,2.77
2023-01-10T17:43:15.301Z,2.27
2023-01-10T17:45:44.210Z,4.37
2023-01-10T17:48:13.039Z,6.00
2023-01-10T17:50:40.068Z,3.50
2023-01-10T17:53:07.267Z,2.73
2023-01-10T17:55:34.291Z,2.83
2023-01-10T17:58:05.243Z,3.20
2023-01-10T18:00:32.346Z,2.60
2023-01-10T18:02:59.424Z,2.30
2023-01-10T18:05:26.497Z,2.33
2023-01-10T18:07:53.587Z,2.77
2023-01-10T18:10:20.630Z,1.90
2023-01-10T18:12:47.686Z,1.73
2023-01-10T18:15:14.710Z,2.87
2023-01-10T18:17:41.722Z,2.10
2023-01-10T18:20:09.363Z,2.37
2023-01-10T18:22:55.163Z,2.10
2023-01-10T18:25:22.287Z,2.77
2023-01-10T18:27:50.427Z,2.50
2023-01-10T18:30:22.131Z,2.50
2023-01-10T18:32:49.500Z,2.73
2023-01-10T18:35:16.212Z,1.97
2023-01-10T18:37:43.229Z,2.23
2023-01-10T18:40:10.549Z,2.07
2023-01-10T18:42:37.991Z,2.03
2023-01-10T18:45:06.140Z,1.63
2023-01-10T18:47:33.295Z,2.50
2023-01-10T18:50:00.385Z,2.27
2023-01-10T18:52:27.485Z,3.37
2023-01-10T18:54:54.622Z,2.67
2023-01-10T18:57:21.430Z,2.70
2023-01-10T18:59:48.571Z,2.53
2023-01-10T19:02:16.775Z,2.73
2023-01-10T19:04:43.854Z,2.40
2023-01-10T19:07:10.902Z,2.60
2023-01-10T19:09:37.913Z,2.03
2023-01-10T19:12:04.718Z,2.33
2023-01-10T19:14:31.358Z,2.83
2023-01-10T19:16:58.447Z,2.90
2023-01-10T19:19:25.084Z,2.67
2023-01-10T19:21:52.188Z,1.93
2023-01-10T19:24:22.698Z,2.33
2023-01-10T19:26:49.760Z,2.60
2023-01-10T19:29:16.560Z,1.90
2023-01-10T19:31:44.609Z,2.30
2023-01-10T19:34:12.529Z,3.23
2023-01-10T19:36:41.428Z,2.50
2023-01-10T19:39:09.559Z,2.97
2023-01-10T19:41:36.943Z,3.07
2023-01-10T19:44:10.695Z,2.47
2023-01-10T19:46:38.976Z,2.13
2023-01-10T19:49:07.877Z,2.17
2023-01-10T19:51:39.490Z,2.37
2023-01-10T19:54:07.577Z,2.73
2023-01-10T19:56:35.566Z,3.60
2023-01-10T19:59:02.696Z,3.60
2023-01-10T20:01:30.816Z,2.17
2023-01-10T20:04:01.423Z,3.37
2023-01-10T20:06:30.030Z,2.20
2023-01-10T20:08:57.116Z,2.43
2023-01-10T20:11:25.381Z,2.10
2023-01-10T20:13:52.729Z,2.73
2023-01-10T20:16:21.785Z,2.50
2023-01-10T20:18:49.349Z,2.23
2023-01-10T20:21:18.420Z,2.30
2023-01-10T20:23:45.606Z,2.17
2023-01-10T20:26:14.559Z,2.17
2023-01-10T20:28:42.579Z,2.13
2023-01-10T20:31:13.062Z,2.50
2023-01-10T20:33:40.156Z,1.60
2023-01-10T20:36:10.652Z,2.50
2023-01-10T20:38:38.125Z,2.20
2023-01-10T20:41:15.514Z,2.33
2023-01-10T20:43:42.907Z,1.60
2023-01-10T20:46:12.096Z,2.30
2023-01-10T20:48:40.000Z,2.00
2023-01-10T20:51:07.164Z,2.13
2023-01-10T20:53:34.259Z,1.80
2023-01-10T20:56:06.376Z,1.57
2023-01-10T20:58:34.875Z,1.40
2023-01-10T21:01:01.966Z,1.87
2023-01-10T21:03:29.116Z,1.53
2023-01-10T21:05:57.444Z,1.50
2023-01-10T21:08:24.643Z,1.40
2023-01-10T21:10:52.408Z,1.10
2023-01-10T21:13:19.314Z,1.23
2023-01-10T21:15:47.073Z,1.37
2023-01-10T21:18:15.752Z,1.17
2023-01-10T21:20:46.808Z,0.97
2023-01-10T21:23:14.387Z,1.67
2023-01-10T21:25:41.895Z,1.17
2023-01-10T21:28:09.770Z,0.80
2023-01-10T21:30:37.404Z,0.70
2023-01-10T21:33:05.427Z,0.83
2023-01-10T21:35:32.810Z,0.40
2023-01-10T21:37:59.911Z,0.60
2023-01-10T21:40:27.668Z,0.60
2023-01-10T21:42:54.981Z,0.73
2023-01-10T21:45:22.319Z,0.87
2023-01-10T21:47:49.607Z,0.50
2023-01-10T21:50:17.487Z,0.43
2023-01-10T21:52:44.634Z,0.73
2023-01-10T21:55:14.235Z,0.70
2023-01-10T21:57:41.307Z,0.73
2023-01-10T22:00:08.876Z,0.90
2023-01-10T22:02:38.801Z,0.90
2023-01-10T22:05:06.067Z,0.70
2023-01-10T22:07:33.163Z,0.60
2023-01-10T22:10:00.303Z,0.70
2023-01-10T22:12:28.696Z,0.40
2023-01-10T22:14:55.718Z,0.50
2023-01-10T22:17:23.100Z,0.50
2023-01-10T22:19:50.178Z,0.50
2023-01-10T22:22:18.773Z,0.40
2023-01-10T22:24:47.802Z,0.40
2023-01-10T22:27:16.315Z,0.30
2023-01-10T22:29:43.565Z,0.40
2023-01-10T22:32:10.657Z,0.20
2023-01-10T22:34:37.974Z,0.50
2023-01-10T22:37:05.147Z,0.43
2023-01-10T22:39:31.893Z,0.50
2023-01-10T22:41:59.074Z,0.70
2023-01-10T22:44:26.912Z,0.50
2023-01-10T22:46:55.088Z,0.33
2023-01-10T22:49:22.419Z,0.47
2023-01-10T22:51:49.608Z,0.50
2023-01-10T22:54:17.667Z,0.40
2023-01-10T22:56:45.716Z,0.33
2023-01-10T22:59:12.950Z,0.50
2023-01-10T23:01:40.476Z,0.33
2023-01-10T23:04:07.715Z,0.30
2023-01-10T23:06:34.888Z,0.30
2023-01-10T23:09:01.961Z,0.40
2023-01-10T23:11:29.180Z,0.50
2023-01-10T23:13:56.236Z,0.50
2023-01-10T23:16:28.618Z,0.37
2023-01-10T23:18:57.098Z,0.43
2023-01-10T23:21:24.496Z,0.30
2023-01-10T23:23:51.571Z,0.40
2023-01-10T23:26:18.931Z,0.40
2023-01-10T23:28:51.167Z,0.30
2023-01-10T23:31:22.738Z,0.30
2023-01-10T23:33:50.556Z,0.30
2023-01-10T23:36:17.984Z,0.40
2023-01-10T23:38:45.169Z,0.50
2023-01-10T23:41:12.584Z,0.40
2023-01-10T23:43:39.619Z,0.30
2023-01-10T23:46:06.972Z,0.20
2023-01-10T23:48:34.164Z,0.23
2023-01-10T23:51:01.322Z,0.20
2023-01-10T23:53:28.403Z,0.30
2023-01-10T23:55:55.552Z,0.40
2023-01-10T23:58:22.601Z,0.37
